createdAt,value
2023-01-19T21:58:18.988Z,99.55
2023-01-19T21:59:24.630Z,99.86
2023-01-19T22:00:30.324Z,99.96
2023-01-19T22:01:36.153Z,99.99
2023-01-19T22:02:45.005Z,99.99
2023-01-19T22:03:53.112Z,99.99
2023-01-19T22:18:15.851Z,99.99
2023-01-19T22:19:21.968Z,99.95
2023-01-19T22:20:28.953Z,99.85
2023-01-19T22:21:36.337Z,99.74
2023-01-19T22:22:42.438Z,99.85
2023-01-19T22:23:48.706Z,99.90
2023-01-19T22:24:55.813Z,99.99
2023-01-19T22:26:01.387Z,99.99
2023-01-19T22:27:07.298Z,99.99
2023-01-19T22:28:13.223Z,99.99
2023-01-19T22:29:18.866Z,99.99
2023-01-19T22:30:25.148Z,99.99
2023-01-19T22:31:31.048Z,99.99
2023-01-19T22:32:36.704Z,99.99
2023-01-19T22:33:42.860Z,99.99
2023-01-19T22:34:49.467Z,99.99
2023-01-19T22:35:56.455Z,99.99
2023-01-19T22:37:02.842Z,99.99
2023-01-19T22:38:09.228Z,99.99
2023-01-19T22:39:15.203Z,99.99
2023-01-19T22:40:21.560Z,99.99
2023-01-19T22:41:27.514Z,99.99
2023-01-19T22:42:33.925Z,99.99
2023-01-19T22:43:39.377Z,99.99
2023-01-19T22:44:44.688Z,99.99
2023-01-19T22:45:51.276Z,99.99
2023-01-19T22:46:56.878Z,99.99
2023-01-19T22:48:02.317Z,99.99
2023-01-19T22:49:08.907Z,99.99
2023-01-19T22:50:14.769Z,99.99
2023-01-19T22:51:20.215Z,99.99
2023-01-19T22:52:25.686Z,99.99
2023-01-19T22:53:31.283Z,99.99
2023-01-19T22:54:36.933Z,99.99
2023-01-19T22:55:42.780Z,99.99
2023-01-19T22:56:49.008Z,99.99
2023-01-19T22:57:54.743Z,99.99
2023-01-19T22:59:00.848Z,99.99
2023-01-19T23:00:07.159Z,99.99
2023-01-19T23:01:13.053Z,99.99
2023-01-19T23:02:20.929Z,99.99
2023-01-19T23:03:30.319Z,99.99
2023-01-19T23:04:35.735Z,99.99
2023-01-19T23:05:41.240Z,99.99
2023-01-19T23:06:46.609Z,99.99
2023-01-19T23:07:52.030Z,99.99
2023-01-19T23:08:58.394Z,99.99
2023-01-19T23:10:04.566Z,99.99
2023-01-19T23:11:10.016Z,99.99
2023-01-19T23:12:16.894Z,99.99
2023-01-19T23:13:22.221Z,99.99
2023-01-19T23:14:27.605Z,99.99
2023-01-19T23:15:33.007Z,99.99
2023-01-19T23:16:38.360Z,99.99
2023-01-19T23:17:43.721Z,99.99
2023-01-19T23:18:49.109Z,99.99
2023-01-19T23:19:54.466Z,99.99
2023-01-19T23:22:48.470Z,99.99
2023-01-19T23:23:53.862Z,99.99
2023-01-19T23:24:59.189Z,99.99
2023-01-19T23:26:04.558Z,99.99
2023-01-19T23:27:09.911Z,99.99
2023-01-19T23:28:15.687Z,99.99
2023-01-19T23:29:21.025Z,99.99
2023-01-19T23:30:26.439Z,99.99
2023-01-19T23:31:31.785Z,99.99
2023-01-19T23:32:37.106Z,99.99
2023-01-19T23:33:42.448Z,99.99
2023-01-19T23:34:47.789Z,99.99
2023-01-19T23:35:53.156Z,99.99
2023-01-19T23:36:59.418Z,99.99
2023-01-19T23:38:04.804Z,99.99
2023-01-19T23:39:10.145Z,99.99
2023-01-19T23:40:15.510Z,99.99
2023-01-19T23:41:20.831Z,99.99
2023-01-19T23:42:26.149Z,99.99
2023-01-19T23:43:31.469Z,99.99
2023-01-19T23:44:36.820Z,99.99
2023-01-19T23:45:42.251Z,99.99
2023-01-19T23:46:47.725Z,99.99
2023-01-19T23:47:53.235Z,99.99
2023-01-19T23:48:59.347Z,99.99
2023-01-19T23:50:07.120Z,99.99
2023-01-19T23:51:13.629Z,99.99
2023-01-19T23:52:20.835Z,99.99
2023-01-19T23:53:27.256Z,99.99
2023-01-19T23:54:33.025Z,99.99
2023-01-19T23:55:38.594Z,99.99
2023-01-19T23:56:44.254Z,99.99
2023-01-19T23:57:49.730Z,99.99
2023-01-19T23:58:55.267Z,99.99
